sensor_id;sensor_type;location;lat;lon;timestamp;P1;durP1;ratioP1;P2;durP2;ratioP2
19619;SDS011;9957;52.282;21.110;2023-03-11T00:00:07;47.45;;;19.13;;
19619;SDS011;9957;52.282;21.110;2023-03-11T00:02:37;46.30;;;18.42;;
19619;SDS011;9957;52.282;21.110;2023-03-11T00:05:04;43.10;;;19.33;;
19619;SDS011;9957;52.282;21.110;2023-03-11T00:07:30;44.72;;;18.95;;
19619;SDS011;9957;52.282;21.110;2023-03-11T00:09:56;48.95;;;19.30;;
19619;SDS011;9957;52.282;21.110;2023-03-11T00:12:22;50.83;;;19.30;;
19619;SDS011;9957;52.282;21.110;2023-03-11T00:14:48;47.42;;;18.30;;
19619;SDS011;9957;52.282;21.110;2023-03-11T00:17:14;49.20;;;18.93;;
19619;SDS011;9957;52.282;21.110;2023-03-11T00:19:40;47.85;;;18.48;;
19619;SDS011;9957;52.282;21.110;2023-03-11T00:22:06;43.47;;;17.75;;
19619;SDS011;9957;52.282;21.110;2023-03-11T00:24:33;42.38;;;17.75;;
19619;SDS011;9957;52.282;21.110;2023-03-11T00:26:59;44.50;;;18.27;;
19619;SDS011;9957;52.282;21.110;2023-03-11T00:29:25;48.08;;;18.55;;
19619;SDS011;9957;52.282;21.110;2023-03-11T00:31:51;40.15;;;17.80;;
19619;SDS011;9957;52.282;21.110;2023-03-11T00:34:17;41.53;;;17.90;;
19619;SDS011;9957;52.282;21.110;2023-03-11T00:36:43;47.07;;;18.67;;
19619;SDS011;9957;52.282;21.110;2023-03-11T00:39:09;42.25;;;18.70;;
19619;SDS011;9957;52.282;21.110;2023-03-11T00:41:35;41.78;;;17.65;;
19619;SDS011;9957;52.282;21.110;2023-03-11T00:44:01;42.97;;;17.63;;
19619;SDS011;9957;52.282;21.110;2023-03-11T00:46:27;41.67;;;16.55;;
19619;SDS011;9957;52.282;21.110;2023-03-11T00:48:55;40.55;;;16.88;;
19619;SDS011;9957;52.282;21.110;2023-03-11T00:51:21;49.03;;;17.83;;
19619;SDS011;9957;52.282;21.110;2023-03-11T00:53:47;42.25;;;16.70;;
19619;SDS011;9957;52.282;21.110;2023-03-11T00:56:14;55.22;;;26.70;;
19619;SDS011;9957;52.282;21.110;2023-03-11T00:58:41;39.40;;;16.23;;
19619;SDS011;9957;52.282;21.110;2023-03-11T01:01:15;37.97;;;15.20;;
19619;SDS011;9957;52.282;21.110;2023-03-11T01:03:42;38.47;;;16.67;;
19619;SDS011;9957;52.282;21.110;2023-03-11T01:06:08;39.58;;;16.20;;
19619;SDS011;9957;52.282;21.110;2023-03-11T01:08:34;38.70;;;15.98;;
19619;SDS011;9957;52.282;21.110;2023-03-11T01:11:00;41.30;;;18.40;;
19619;SDS011;9957;52.282;21.110;2023-03-11T01:13:27;39.08;;;15.63;;
19619;SDS011;9957;52.282;21.110;2023-03-11T01:15:54;37.60;;;15.45;;
19619;SDS011;9957;52.282;21.110;2023-03-11T01:18:20;35.95;;;15.43;;
19619;SDS011;9957;52.282;21.110;2023-03-11T01:20:46;39.20;;;15.38;;
19619;SDS011;9957;52.282;21.110;2023-03-11T01:23:13;42.27;;;17.23;;
19619;SDS011;9957;52.282;21.110;2023-03-11T01:25:39;41.67;;;17.83;;
19619;SDS011;9957;52.282;21.110;2023-03-11T01:28:06;40.83;;;16.63;;
19619;SDS011;9957;52.282;21.110;2023-03-11T01:30:33;41.28;;;16.80;;
19619;SDS011;9957;52.282;21.110;2023-03-11T01:32:59;38.85;;;15.38;;
19619;SDS011;9957;52.282;21.110;2023-03-11T01:35:27;38.30;;;15.80;;
19619;SDS011;9957;52.282;21.110;2023-03-11T01:37:53;35.73;;;15.40;;
19619;SDS011;9957;52.282;21.110;2023-03-11T01:40:33;32.92;;;14.00;;
19619;SDS011;9957;52.282;21.110;2023-03-11T01:43:00;45.03;;;15.63;;
19619;SDS011;9957;52.282;21.110;2023-03-11T01:47:58;34.38;;;15.95;;
19619;SDS011;9957;52.282;21.110;2023-03-11T01:50:24;46.67;;;20.87;;
19619;SDS011;9957;52.282;21.110;2023-03-11T01:52:51;37.83;;;16.42;;
19619;SDS011;9957;52.282;21.110;2023-03-11T01:55:18;34.93;;;15.10;;
19619;SDS011;9957;52.282;21.110;2023-03-11T01:57:44;35.90;;;13.82;;
19619;SDS011;9957;52.282;21.110;2023-03-11T02:00:11;35.50;;;14.57;;
19619;SDS011;9957;52.282;21.110;2023-03-11T02:02:47;40.28;;;15.73;;
19619;SDS011;9957;52.282;21.110;2023-03-11T02:05:14;39.97;;;16.73;;
19619;SDS011;9957;52.282;21.110;2023-03-11T02:07:41;48.85;;;22.42;;
19619;SDS011;9957;52.282;21.110;2023-03-11T02:10:07;39.90;;;19.92;;
19619;SDS011;9957;52.282;21.110;2023-03-11T02:12:34;38.67;;;16.40;;
19619;SDS011;9957;52.282;21.110;2023-03-11T02:15:00;40.00;;;14.45;;
19619;SDS011;9957;52.282;21.110;2023-03-11T02:17:27;35.42;;;13.63;;
19619;SDS011;9957;52.282;21.110;2023-03-11T02:22:19;33.25;;;13.50;;
19619;SDS011;9957;52.282;21.110;2023-03-11T02:24:49;33.25;;;13.75;;
19619;SDS011;9957;52.282;21.110;2023-03-11T02:27:18;43.25;;;19.42;;
19619;SDS011;9957;52.282;21.110;2023-03-11T02:29:44;42.83;;;20.23;;
19619;SDS011;9957;52.282;21.110;2023-03-11T02:32:14;34.10;;;14.07;;
19619;SDS011;9957;52.282;21.110;2023-03-11T02:34:40;30.67;;;12.63;;
19619;SDS011;9957;52.282;21.110;2023-03-11T02:37:07;51.58;;;19.10;;
19619;SDS011;9957;52.282;21.110;2023-03-11T02:39:35;43.20;;;17.02;;
19619;SDS011;9957;52.282;21.110;2023-03-11T02:42:03;39.60;;;16.55;;
19619;SDS011;9957;52.282;21.110;2023-03-11T02:44:30;37.88;;;16.48;;
19619;SDS011;9957;52.282;21.110;2023-03-11T02:46:56;41.72;;;19.40;;
19619;SDS011;9957;52.282;21.110;2023-03-11T02:49:22;42.95;;;19.73;;
19619;SDS011;9957;52.282;21.110;2023-03-11T02:51:49;38.28;;;15.23;;
19619;SDS011;9957;52.282;21.110;2023-03-11T02:54:16;50.38;;;19.42;;
19619;SDS011;9957;52.282;21.110;2023-03-11T02:56:42;35.55;;;14.63;;
19619;SDS011;9957;52.282;21.110;2023-03-11T02:59:08;54.93;;;20.43;;
19619;SDS011;9957;52.282;21.110;2023-03-11T03:01:34;44.30;;;20.98;;
19619;SDS011;9957;52.282;21.110;2023-03-11T03:04:00;35.22;;;16.52;;
19619;SDS011;9957;52.282;21.110;2023-03-11T03:06:26;31.42;;;14.80;;
19619;SDS011;9957;52.282;21.110;2023-03-11T03:08:53;29.57;;;11.90;;
19619;SDS011;9957;52.282;21.110;2023-03-11T03:11:19;27.67;;;11.93;;
19619;SDS011;9957;52.282;21.110;2023-03-11T03:13:45;28.05;;;11.40;;
19619;SDS011;9957;52.282;21.110;2023-03-11T03:16:11;28.48;;;12.10;;
19619;SDS011;9957;52.282;21.110;2023-03-11T03:18:37;28.85;;;11.25;;
19619;SDS011;9957;52.282;21.110;2023-03-11T03:21:03;26.80;;;11.68;;
19619;SDS011;9957;52.282;21.110;2023-03-11T03:23:30;27.63;;;11.18;;
19619;SDS011;9957;52.282;21.110;2023-03-11T03:26:01;25.27;;;10.93;;
19619;SDS011;9957;52.282;21.110;2023-03-11T03:28:30;30.70;;;12.10;;
19619;SDS011;9957;52.282;21.110;2023-03-11T03:31:02;28.73;;;12.00;;
19619;SDS011;9957;52.282;21.110;2023-03-11T03:33:28;33.97;;;11.70;;
19619;SDS011;9957;52.282;21.110;2023-03-11T03:35:54;29.67;;;11.88;;
19619;SDS011;9957;52.282;21.110;2023-03-11T03:38:20;29.38;;;12.60;;
19619;SDS011;9957;52.282;21.110;2023-03-11T03:40:46;29.80;;;11.80;;
19619;SDS011;9957;52.282;21.110;2023-03-11T03:43:12;33.80;;;12.07;;
19619;SDS011;9957;52.282;21.110;2023-03-11T03:45:38;29.25;;;12.10;;
19619;SDS011;9957;52.282;21.110;2023-03-11T03:48:05;32.83;;;12.00;;
19619;SDS011;9957;52.282;21.110;2023-03-11T03:50:31;34.90;;;13.63;;
19619;SDS011;9957;52.282;21.110;2023-03-11T03:52:57;28.67;;;12.15;;
19619;SDS011;9957;52.282;21.110;2023-03-11T03:55:23;32.30;;;12.45;;
19619;SDS011;9957;52.282;21.110;2023-03-11T03:57:49;29.15;;;12.40;;
19619;SDS011;9957;52.282;21.110;2023-03-11T04:00:15;30.30;;;12.63;;
19619;SDS011;9957;52.282;21.110;2023-03-11T04:02:42;30.50;;;12.75;;
19619;SDS011;9957;52.282;21.110;2023-03-11T04:05:08;31.50;;;12.85;;
19619;SDS011;9957;52.282;21.110;2023-03-11T04:07:34;30.10;;;11.90;;
19619;SDS011;9957;52.282;21.110;2023-03-11T04:10:01;31.40;;;12.48;;
19619;SDS011;9957;52.282;21.110;2023-03-11T04:12:27;33.30;;;12.98;;
19619;SDS011;9957;52.282;21.110;2023-03-11T04:14:53;34.38;;;12.68;;
19619;SDS011;9957;52.282;21.110;2023-03-11T04:17:19;32.90;;;12.55;;
19619;SDS011;9957;52.282;21.110;2023-03-11T04:19:45;30.90;;;11.70;;
19619;SDS011;9957;52.282;21.110;2023-03-11T04:22:11;28.38;;;11.70;;
19619;SDS011;9957;52.282;21.110;2023-03-11T04:24:37;31.65;;;11.73;;
19619;SDS011;9957;52.282;21.110;2023-03-11T04:27:03;26.05;;;11.90;;
19619;SDS011;9957;52.282;21.110;2023-03-11T04:29:29;29.80;;;12.17;;
19619;SDS011;9957;52.282;21.110;2023-03-11T04:31:55;29.20;;;12.30;;
19619;SDS011;9957;52.282;21.110;2023-03-11T04:34:21;27.08;;;11.85;;
19619;SDS011;9957;52.282;21.110;2023-03-11T04:36:50;30.25;;;12.15;;
19619;SDS011;9957;52.282;21.110;2023-03-11T04:39:16;27.13;;;11.90;;
19619;SDS011;9957;52.282;21.110;2023-03-11T04:41:42;30.70;;;12.60;;
19619;SDS011;9957;52.282;21.110;2023-03-11T04:44:08;34.67;;;12.38;;
19619;SDS011;9957;52.282;21.110;2023-03-11T04:46:34;27.70;;;11.87;;
19619;SDS011;9957;52.282;21.110;2023-03-11T04:49:00;30.50;;;12.60;;
19619;SDS011;9957;52.282;21.110;2023-03-11T04:51:26;29.33;;;11.98;;
19619;SDS011;9957;52.282;21.110;2023-03-11T04:53:52;30.40;;;11.38;;
19619;SDS011;9957;52.282;21.110;2023-03-11T04:56:18;28.85;;;11.93;;
19619;SDS011;9957;52.282;21.110;2023-03-11T04:58:44;25.73;;;11.43;;
19619;SDS011;9957;52.282;21.110;2023-03-11T05:01:10;30.17;;;12.15;;
19619;SDS011;9957;52.282;21.110;2023-03-11T05:03:36;27.52;;;11.88;;
19619;SDS011;9957;52.282;21.110;2023-03-11T05:06:02;28.80;;;11.95;;
19619;SDS011;9957;52.282;21.110;2023-03-11T05:08:28;28.95;;;11.30;;
19619;SDS011;9957;52.282;21.110;2023-03-11T05:10:54;28.58;;;11.38;;
19619;SDS011;9957;52.282;21.110;2023-03-11T05:13:21;30.30;;;11.43;;
19619;SDS011;9957;52.282;21.110;2023-03-11T05:15:47;27.85;;;11.05;;
19619;SDS011;9957;52.282;21.110;2023-03-11T05:18:13;27.73;;;10.73;;
19619;SDS011;9957;52.282;21.110;2023-03-11T05:20:39;26.45;;;10.85;;
19619;SDS011;9957;52.282;21.110;2023-03-11T05:23:05;28.15;;;11.25;;
19619;SDS011;9957;52.282;21.110;2023-03-11T05:25:31;27.35;;;11.38;;
19619;SDS011;9957;52.282;21.110;2023-03-11T05:27:59;28.80;;;11.32;;
19619;SDS011;9957;52.282;21.110;2023-03-11T05:30:25;24.85;;;10.85;;
19619;SDS011;9957;52.282;21.110;2023-03-11T05:32:51;27.85;;;11.73;;
19619;SDS011;9957;52.282;21.110;2023-03-11T05:35:17;28.73;;;11.98;;
19619;SDS011;9957;52.282;21.110;2023-03-11T05:37:43;26.27;;;11.15;;
19619;SDS011;9957;52.282;21.110;2023-03-11T05:40:09;30.15;;;12.48;;
19619;SDS011;9957;52.282;21.110;2023-03-11T05:42:37;27.90;;;11.25;;
19619;SDS011;9957;52.282;21.110;2023-03-11T05:45:07;32.33;;;11.50;;
19619;SDS011;9957;52.282;21.110;2023-03-11T05:47:33;25.52;;;10.63;;
19619;SDS011;9957;52.282;21.110;2023-03-11T05:49:59;27.47;;;11.43;;
19619;SDS011;9957;52.282;21.110;2023-03-11T05:52:25;26.13;;;11.30;;
19619;SDS011;9957;52.282;21.110;2023-03-11T05:54:51;27.90;;;11.57;;
19619;SDS011;9957;52.282;21.110;2023-03-11T05:57:18;28.77;;;11.52;;
19619;SDS011;9957;52.282;21.110;2023-03-11T05:59:44;28.23;;;11.55;;
19619;SDS011;9957;52.282;21.110;2023-03-11T06:02:10;82.07;;;32.93;;
19619;SDS011;9957;52.282;21.110;2023-03-11T06:04:36;45.53;;;18.60;;
19619;SDS011;9957;52.282;21.110;2023-03-11T06:07:02;44.33;;;18.27;;
19619;SDS011;9957;52.282;21.110;2023-03-11T06:09:28;71.07;;;30.33;;
19619;SDS011;9957;52.282;21.110;2023-03-11T06:11:55;52.13;;;22.67;;
19619;SDS011;9957;52.282;21.110;2023-03-11T06:14:21;48.55;;;19.58;;
19619;SDS011;9957;52.282;21.110;2023-03-11T06:16:47;43.95;;;19.33;;
19619;SDS011;9957;52.282;21.110;2023-03-11T06:19:13;30.70;;;13.67;;
19619;SDS011;9957;52.282;21.110;2023-03-11T06:21:39;28.60;;;12.30;;
19619;SDS011;9957;52.282;21.110;2023-03-11T06:24:05;30.95;;;11.25;;
19619;SDS011;9957;52.282;21.110;2023-03-11T06:26:31;31.60;;;12.10;;
19619;SDS011;9957;52.282;21.110;2023-03-11T06:28:57;29.58;;;11.85;;
19619;SDS011;9957;52.282;21.110;2023-03-11T06:31:25;28.92;;;11.30;;
19619;SDS011;9957;52.282;21.110;2023-03-11T06:33:51;28.58;;;10.70;;
19619;SDS011;9957;52.282;21.110;2023-03-11T06:36:20;23.70;;;9.95;;
19619;SDS011;9957;52.282;21.110;2023-03-11T06:38:46;56.10;;;21.67;;
19619;SDS011;9957;52.282;21.110;2023-03-11T06:41:14;18.40;;;7.85;;
19619;SDS011;9957;52.282;21.110;2023-03-11T06:43:40;22.35;;;9.90;;
19619;SDS011;9957;52.282;21.110;2023-03-11T06:46:07;21.27;;;8.30;;
19619;SDS011;9957;52.282;21.110;2023-03-11T06:48:33;20.23;;;8.20;;
19619;SDS011;9957;52.282;21.110;2023-03-11T06:51:00;22.08;;;8.50;;
19619;SDS011;9957;52.282;21.110;2023-03-11T06:53:26;23.58;;;9.88;;
19619;SDS011;9957;52.282;21.110;2023-03-11T06:56:03;24.15;;;11.10;;
19619;SDS011;9957;52.282;21.110;2023-03-11T06:58:30;20.60;;;8.98;;
19619;SDS011;9957;52.282;21.110;2023-03-11T07:01:03;25.00;;;9.93;;
19619;SDS011;9957;52.282;21.110;2023-03-11T07:03:30;16.52;;;7.35;;
19619;SDS011;9957;52.282;21.110;2023-03-11T07:05:56;15.97;;;7.87;;
19619;SDS011;9957;52.282;21.110;2023-03-11T07:08:23;17.73;;;7.95;;
19619;SDS011;9957;52.282;21.110;2023-03-11T07:13:30;15.32;;;7.72;;
19619;SDS011;9957;52.282;21.110;2023-03-11T07:16:05;18.95;;;9.80;;
19619;SDS011;9957;52.282;21.110;2023-03-11T07:18:31;17.03;;;8.50;;
19619;SDS011;9957;52.282;21.110;2023-03-11T07:20:58;17.65;;;8.23;;
19619;SDS011;9957;52.282;21.110;2023-03-11T07:23:24;16.20;;;7.97;;
19619;SDS011;9957;52.282;21.110;2023-03-11T07:25:50;16.75;;;8.23;;
19619;SDS011;9957;52.282;21.110;2023-03-11T07:28:17;16.73;;;8.17;;
19619;SDS011;9957;52.282;21.110;2023-03-11T07:30:43;12.48;;;6.70;;
19619;SDS011;9957;52.282;21.110;2023-03-11T07:33:10;17.60;;;8.93;;
19619;SDS011;9957;52.282;21.110;2023-03-11T07:35:37;16.77;;;8.40;;
19619;SDS011;9957;52.282;21.110;2023-03-11T07:38:03;16.98;;;8.52;;
19619;SDS011;9957;52.282;21.110;2023-03-11T07:40:29;22.23;;;10.68;;
19619;SDS011;9957;52.282;21.110;2023-03-11T07:42:55;18.23;;;8.90;;
19619;SDS011;9957;52.282;21.110;2023-03-11T07:45:21;17.33;;;9.07;;
19619;SDS011;9957;52.282;21.110;2023-03-11T07:47:47;21.75;;;11.65;;
19619;SDS011;9957;52.282;21.110;2023-03-11T07:50:13;23.00;;;11.57;;
19619;SDS011;9957;52.282;21.110;2023-03-11T07:52:41;19.00;;;8.70;;
19619;SDS011;9957;52.282;21.110;2023-03-11T07:55:07;18.38;;;8.88;;
19619;SDS011;9957;52.282;21.110;2023-03-11T07:57:33;17.35;;;8.60;;
19619;SDS011;9957;52.282;21.110;2023-03-11T07:59:59;20.42;;;9.40;;
19619;SDS011;9957;52.282;21.110;2023-03-11T08:02:25;17.20;;;9.55;;
19619;SDS011;9957;52.282;21.110;2023-03-11T08:04:51;20.73;;;10.23;;
19619;SDS011;9957;52.282;21.110;2023-03-11T08:07:17;23.27;;;12.20;;
19619;SDS011;9957;52.282;21.110;2023-03-11T08:09:44;24.05;;;11.48;;
19619;SDS011;9957;52.282;21.110;2023-03-11T08:12:10;19.67;;;10.10;;
19619;SDS011;9957;52.282;21.110;2023-03-11T08:14:36;32.15;;;15.32;;
19619;SDS011;9957;52.282;21.110;2023-03-11T08:17:04;28.07;;;13.67;;
19619;SDS011;9957;52.282;21.110;2023-03-11T08:19:30;33.47;;;16.10;;
19619;SDS011;9957;52.282;21.110;2023-03-11T08:21:56;29.88;;;15.25;;
19619;SDS011;9957;52.282;21.110;2023-03-11T08:24:22;26.83;;;12.73;;
19619;SDS011;9957;52.282;21.110;2023-03-11T08:26:48;25.58;;;13.27;;
19619;SDS011;9957;52.282;21.110;2023-03-11T08:29:14;24.25;;;12.25;;
19619;SDS011;9957;52.282;21.110;2023-03-11T08:31:40;23.35;;;12.20;;
19619;SDS011;9957;52.282;21.110;2023-03-11T08:34:07;22.67;;;11.82;;
19619;SDS011;9957;52.282;21.110;2023-03-11T08:36:33;21.90;;;11.80;;
19619;SDS011;9957;52.282;21.110;2023-03-11T08:39:00;21.77;;;12.27;;
19619;SDS011;9957;52.282;21.110;2023-03-11T08:41:26;22.35;;;11.90;;
19619;SDS011;9957;52.282;21.110;2023-03-11T08:43:52;20.65;;;10.77;;
19619;SDS011;9957;52.282;21.110;2023-03-11T08:46:23;23.00;;;10.85;;
19619;SDS011;9957;52.282;21.110;2023-03-11T08:48:49;34.15;;;15.77;;
19619;SDS011;9957;52.282;21.110;2023-03-11T08:51:16;23.48;;;11.15;;
19619;SDS011;9957;52.282;21.110;2023-03-11T08:53:42;22.58;;;11.95;;
19619;SDS011;9957;52.282;21.110;2023-03-11T08:56:08;23.15;;;12.35;;
19619;SDS011;9957;52.282;21.110;2023-03-11T08:58:34;24.35;;;11.38;;
19619;SDS011;9957;52.282;21.110;2023-03-11T09:01:00;23.50;;;11.63;;
19619;SDS011;9957;52.282;21.110;2023-03-11T09:03:29;22.17;;;11.60;;
19619;SDS011;9957;52.282;21.110;2023-03-11T09:05:59;25.92;;;12.25;;
19619;SDS011;9957;52.282;21.110;2023-03-11T09:08:25;27.15;;;12.80;;
19619;SDS011;9957;52.282;21.110;2023-03-11T09:10:51;25.08;;;12.52;;
19619;SDS011;9957;52.282;21.110;2023-03-11T09:13:17;25.37;;;12.00;;
19619;SDS011;9957;52.282;21.110;2023-03-11T09:15:44;22.75;;;11.13;;
19619;SDS011;9957;52.282;21.110;2023-03-11T09:18:11;21.35;;;10.40;;
19619;SDS011;9957;52.282;21.110;2023-03-11T09:20:38;21.77;;;10.50;;
19619;SDS011;9957;52.282;21.110;2023-03-11T09:23:04;22.77;;;10.55;;
19619;SDS011;9957;52.282;21.110;2023-03-11T09:25:30;22.02;;;10.27;;
19619;SDS011;9957;52.282;21.110;2023-03-11T09:27:56;24.45;;;11.48;;
19619;SDS011;9957;52.282;21.110;2023-03-11T09:30:22;27.95;;;13.05;;
19619;SDS011;9957;52.282;21.110;2023-03-11T09:32:48;33.20;;;14.15;;
19619;SDS011;9957;52.282;21.110;2023-03-11T09:35:14;34.87;;;14.70;;
19619;SDS011;9957;52.282;21.110;2023-03-11T09:37:40;32.05;;;13.57;;
19619;SDS011;9957;52.282;21.110;2023-03-11T09:40:07;38.08;;;15.75;;
19619;SDS011;9957;52.282;21.110;2023-03-11T09:42:53;42.05;;;16.95;;
19619;SDS011;9957;52.282;21.110;2023-03-11T09:45:26;43.75;;;17.83;;
19619;SDS011;9957;52.282;21.110;2023-03-11T09:50:25;45.22;;;19.60;;
19619;SDS011;9957;52.282;21.110;2023-03-11T09:52:56;46.20;;;18.40;;
19619;SDS011;9957;52.282;21.110;2023-03-11T09:58:09;40.13;;;17.00;;
19619;SDS011;9957;52.282;21.110;2023-03-11T10:00:36;41.97;;;16.55;;
19619;SDS011;9957;52.282;21.110;2023-03-11T10:03:02;38.65;;;15.40;;
19619;SDS011;9957;52.282;21.110;2023-03-11T10:05:31;35.60;;;14.77;;
19619;SDS011;9957;52.282;21.110;2023-03-11T10:08:01;37.63;;;15.07;;
19619;SDS011;9957;52.282;21.110;2023-03-11T10:10:29;35.92;;;14.82;;
19619;SDS011;9957;52.282;21.110;2023-03-11T10:15:34;38.47;;;14.85;;
19619;SDS011;9957;52.282;21.110;2023-03-11T10:18:22;44.45;;;16.02;;
19619;SDS011;9957;52.282;21.110;2023-03-11T10:26:34;40.03;;;13.95;;
19619;SDS011;9957;52.282;21.110;2023-03-11T10:31:42;26.70;;;11.43;;
19619;SDS011;9957;52.282;21.110;2023-03-11T10:37:04;22.98;;;9.90;;
19619;SDS011;9957;52.282;21.110;2023-03-11T10:39:35;23.67;;;9.80;;
19619;SDS011;9957;52.282;21.110;2023-03-11T10:42:03;17.83;;;8.38;;
19619;SDS011;9957;52.282;21.110;2023-03-11T10:44:33;20.42;;;8.90;;
19619;SDS011;9957;52.282;21.110;2023-03-11T10:47:00;17.80;;;8.18;;
19619;SDS011;9957;52.282;21.110;2023-03-11T10:49:26;18.40;;;7.57;;
19619;SDS011;9957;52.282;21.110;2023-03-11T10:51:53;20.75;;;8.15;;
19619;SDS011;9957;52.282;21.110;2023-03-11T10:54:27;15.82;;;7.78;;
19619;SDS011;9957;52.282;21.110;2023-03-11T10:56:54;13.63;;;6.90;;
19619;SDS011;9957;52.282;21.110;2023-03-11T10:59:34;18.85;;;8.07;;
19619;SDS011;9957;52.282;21.110;2023-03-11T11:05:03;12.82;;;7.18;;
19619;SDS011;9957;52.282;21.110;2023-03-11T11:07:31;14.63;;;7.45;;
19619;SDS011;9957;52.282;21.110;2023-03-11T11:10:17;17.92;;;8.35;;
19619;SDS011;9957;52.282;21.110;2023-03-11T11:15:32;15.77;;;7.75;;
19619;SDS011;9957;52.282;21.110;2023-03-11T11:17:59;14.25;;;7.50;;
19619;SDS011;9957;52.282;21.110;2023-03-11T11:20:26;14.70;;;7.97;;
19619;SDS011;9957;52.282;21.110;2023-03-11T11:22:54;12.10;;;6.55;;
19619;SDS011;9957;52.282;21.110;2023-03-11T11:25:25;10.73;;;5.68;;
19619;SDS011;9957;52.282;21.110;2023-03-11T11:27:55;10.27;;;5.78;;
19619;SDS011;9957;52.282;21.110;2023-03-11T11:30:22;13.23;;;6.00;;
19619;SDS011;9957;52.282;21.110;2023-03-11T11:32:48;13.20;;;6.60;;
19619;SDS011;9957;52.282;21.110;2023-03-11T11:35:19;12.15;;;6.43;;
19619;SDS011;9957;52.282;21.110;2023-03-11T11:37:47;14.75;;;6.38;;
19619;SDS011;9957;52.282;21.110;2023-03-11T11:42:48;12.48;;;5.95;;
19619;SDS011;9957;52.282;21.110;2023-03-11T11:45:17;11.02;;;5.82;;
19619;SDS011;9957;52.282;21.110;2023-03-11T11:47:48;14.20;;;6.50;;
19619;SDS011;9957;52.282;21.110;2023-03-11T11:50:21;15.93;;;7.10;;
19619;SDS011;9957;52.282;21.110;2023-03-11T11:52:50;16.30;;;7.13;;
19619;SDS011;9957;52.282;21.110;2023-03-11T11:55:19;12.23;;;6.18;;
19619;SDS011;9957;52.282;21.110;2023-03-11T11:57:47;13.52;;;6.35;;
19619;SDS011;9957;52.282;21.110;2023-03-11T12:00:19;10.75;;;5.50;;
19619;SDS011;9957;52.282;21.110;2023-03-11T12:03:21;11.48;;;6.03;;
19619;SDS011;9957;52.282;21.110;2023-03-11T12:05:56;14.05;;;7.00;;
19619;SDS011;9957;52.282;21.110;2023-03-11T12:16:02;10.65;;;5.97;;
19619;SDS011;9957;52.282;21.110;2023-03-11T12:20:59;18.75;;;6.53;;
19619;SDS011;9957;52.282;21.110;2023-03-11T12:28:29;15.68;;;8.10;;
19619;SDS011;9957;52.282;21.110;2023-03-11T12:31:02;19.33;;;8.60;;
19619;SDS011;9957;52.282;21.110;2023-03-11T12:33:33;19.23;;;9.10;;
19619;SDS011;9957;52.282;21.110;2023-03-11T12:36:01;17.60;;;8.13;;
19619;SDS011;9957;52.282;21.110;2023-03-11T12:45:50;24.92;;;9.32;;
19619;SDS011;9957;52.282;21.110;2023-03-11T12:50:55;15.25;;;7.82;;
19619;SDS011;9957;52.282;21.110;2023-03-11T12:53:57;28.70;;;12.30;;
19619;SDS011;9957;52.282;21.110;2023-03-11T13:04:01;17.10;;;7.80;;
19619;SDS011;9957;52.282;21.110;2023-03-11T13:09:02;14.85;;;7.38;;
19619;SDS011;9957;52.282;21.110;2023-03-11T13:11:35;16.67;;;7.72;;
19619;SDS011;9957;52.282;21.110;2023-03-11T13:16:43;14.13;;;7.07;;
19619;SDS011;9957;52.282;21.110;2023-03-11T13:21:54;16.42;;;8.07;;
19619;SDS011;9957;52.282;21.110;2023-03-11T13:32:27;20.00;;;8.60;;
19619;SDS011;9957;52.282;21.110;2023-03-11T13:37:45;16.95;;;7.32;;
19619;SDS011;9957;52.282;21.110;2023-03-11T13:42:46;20.17;;;8.90;;
19619;SDS011;9957;52.282;21.110;2023-03-11T13:45:17;22.40;;;9.03;;
19619;SDS011;9957;52.282;21.110;2023-03-11T13:47:46;21.48;;;9.02;;
19619;SDS011;9957;52.282;21.110;2023-03-11T13:50:17;17.23;;;8.30;;
19619;SDS011;9957;52.282;21.110;2023-03-11T13:52:46;19.48;;;8.82;;
19619;SDS011;9957;52.282;21.110;2023-03-11T13:55:17;22.13;;;10.20;;
19619;SDS011;9957;52.282;21.110;2023-03-11T13:57:54;18.92;;;8.48;;
19619;SDS011;9957;52.282;21.110;2023-03-11T14:00:22;20.88;;;9.55;;
19619;SDS011;9957;52.282;21.110;2023-03-11T14:02:52;21.70;;;9.35;;
19619;SDS011;9957;52.282;21.110;2023-03-11T14:05:39;21.98;;;10.43;;
19619;SDS011;9957;52.282;21.110;2023-03-11T14:08:24;31.05;;;13.02;;
19619;SDS011;9957;52.282;21.110;2023-03-11T14:10:52;19.10;;;8.45;;
19619;SDS011;9957;52.282;21.110;2023-03-11T14:13:19;17.75;;;8.05;;
19619;SDS011;9957;52.282;21.110;2023-03-11T14:20:52;18.07;;;7.30;;
19619;SDS011;9957;52.282;21.110;2023-03-11T14:23:18;16.13;;;7.32;;
19619;SDS011;9957;52.282;21.110;2023-03-11T14:25:45;24.30;;;10.93;;
19619;SDS011;9957;52.282;21.110;2023-03-11T14:28:13;17.30;;;6.75;;
19619;SDS011;9957;52.282;21.110;2023-03-11T14:30:42;14.50;;;6.15;;
19619;SDS011;9957;52.282;21.110;2023-03-11T14:33:20;12.85;;;5.72;;
19619;SDS011;9957;52.282;21.110;2023-03-11T14:35:53;15.00;;;6.82;;
19619;SDS011;9957;52.282;21.110;2023-03-11T14:38:20;17.70;;;7.03;;
19619;SDS011;9957;52.282;21.110;2023-03-11T14:40:51;17.02;;;7.25;;
19619;SDS011;9957;52.282;21.110;2023-03-11T14:43:18;17.27;;;7.13;;
19619;SDS011;9957;52.282;21.110;2023-03-11T14:45:44;17.77;;;7.30;;
19619;SDS011;9957;52.282;21.110;2023-03-11T14:48:16;28.60;;;10.95;;
19619;SDS011;9957;52.282;21.110;2023-03-11T14:50:45;15.27;;;6.78;;
19619;SDS011;9957;52.282;21.110;2023-03-11T14:55:43;11.82;;;5.47;;
19619;SDS011;9957;52.282;21.110;2023-03-11T15:03:52;13.93;;;5.57;;
19619;SDS011;9957;52.282;21.110;2023-03-11T15:06:22;12.35;;;5.85;;
19619;SDS011;9957;52.282;21.110;2023-03-11T15:08:50;12.30;;;3.97;;
19619;SDS011;9957;52.282;21.110;2023-03-11T15:13:43;10.00;;;4.60;;
19619;SDS011;9957;52.282;21.110;2023-03-11T15:16:28;16.27;;;5.82;;
19619;SDS011;9957;52.282;21.110;2023-03-11T15:18:54;15.57;;;5.75;;
19619;SDS011;9957;52.282;21.110;2023-03-11T15:21:21;14.52;;;5.82;;
19619;SDS011;9957;52.282;21.110;2023-03-11T15:26:18;14.38;;;5.80;;
19619;SDS011;9957;52.282;21.110;2023-03-11T15:28:45;13.80;;;5.18;;
19619;SDS011;9957;52.282;21.110;2023-03-11T15:33:46;14.20;;;4.40;;
19619;SDS011;9957;52.282;21.110;2023-03-11T15:41:38;11.25;;;4.75;;
19619;SDS011;9957;52.282;21.110;2023-03-11T15:44:04;13.63;;;5.35;;
19619;SDS011;9957;52.282;21.110;2023-03-11T15:46:39;11.27;;;4.47;;
19619;SDS011;9957;52.282;21.110;2023-03-11T15:49:08;8.45;;;4.00;;
19619;SDS011;9957;52.282;21.110;2023-03-11T15:51:36;11.15;;;3.70;;
19619;SDS011;9957;52.282;21.110;2023-03-11T15:54:02;10.57;;;4.30;;
19619;SDS011;9957;52.282;21.110;2023-03-11T15:56:28;13.07;;;4.30;;
19619;SDS011;9957;52.282;21.110;2023-03-11T15:58:57;10.40;;;4.22;;
19619;SDS011;9957;52.282;21.110;2023-03-11T16:01:23;12.77;;;4.90;;
19619;SDS011;9957;52.282;21.110;2023-03-11T16:03:52;11.10;;;4.50;;
19619;SDS011;9957;52.282;21.110;2023-03-11T16:06:18;11.33;;;5.27;;
19619;SDS011;9957;52.282;21.110;2023-03-11T16:08:46;13.18;;;5.10;;
19619;SDS011;9957;52.282;21.110;2023-03-11T16:11:12;24.40;;;9.32;;
19619;SDS011;9957;52.282;21.110;2023-03-11T16:13:39;15.25;;;6.10;;
19619;SDS011;9957;52.282;21.110;2023-03-11T16:16:06;10.27;;;4.53;;
19619;SDS011;9957;52.282;21.110;2023-03-11T16:18:32;12.88;;;5.68;;
19619;SDS011;9957;52.282;21.110;2023-03-11T16:21:00;15.73;;;5.78;;
19619;SDS011;9957;52.282;21.110;2023-03-11T16:23:33;15.05;;;5.95;;